Time;durP1;ratioP1;P1;durP2;ratioP2;P2;SDS_P1;SDS_P2;PMS_P1;PMS_P2;Temp;Humidity;BMP_temperature;BMP_pressure;BME280_temperature;BME280_humidity;BME280_pressure;Samples;Min_cycle;Max_cycle;Signal;HPM_P1;HPM_P2
2020/12/16 00:01:06;;;;;;;20.85;11.10;;;3.70;99.90;;;;;;5079610;28;20269;-63
2020/12/16 00:03:33;;;;;;;15.20;12.23;;;3.70;99.90;;;;;;5079627;28;20206;-63
2020/12/16 00:06:00;;;;;;;18.42;10.52;;;3.60;99.90;;;;;;5083808;28;20231;-62
2020/12/16 00:08:27;;;;;;;20.30;11.35;;;3.70;99.90;;;;;;5084887;28;20228;-62
2020/12/16 00:10:55;;;;;;;25.75;12.77;;;3.70;99.90;;;;;;5081446;28;20213;-62
2020/12/16 00:13:21;;;;;;;22.00;11.85;;;3.60;99.90;;;;;;5084184;28;20240;-62
2020/12/16 00:15:49;;;;;;;33.35;15.05;;;3.50;99.90;;;;;;5082893;28;20239;-62
2020/12/16 00:18:16;;;;;;;32.17;13.27;;;3.60;99.90;;;;;;5086036;28;20537;-62
2020/12/16 00:20:43;;;;;;;24.58;12.35;;;3.60;99.90;;;;;;5082887;28;20286;-61
2020/12/16 00:23:10;;;;;;;25.13;12.02;;;3.70;99.90;;;;;;5083463;28;20516;-62
2020/12/16 00:25:37;;;;;;;23.58;12.82;;;3.60;99.90;;;;;;5082118;28;20235;-62
2020/12/16 00:28:04;;;;;;;25.83;11.77;;;3.60;99.90;;;;;;5081881;28;20206;-62
2020/12/16 00:30:30;;;;;;;26.13;12.75;;;3.70;99.90;;;;;;5083186;28;20211;-62
2020/12/16 00:32:57;;;;;;;19.40;11.27;;;3.70;99.90;;;;;;5080136;28;20226;-62
2020/12/16 00:35:23;;;;;;;23.27;12.57;;;3.60;99.90;;;;;;5083793;28;20251;-63
2020/12/16 00:37:50;;;;;;;23.23;13.10;;;3.60;99.90;;;;;;5080696;28;20539;-62
2020/12/16 00:40:17;;;;;;;29.27;13.18;;;3.70;99.90;;;;;;5079910;28;20407;-61
2020/12/16 00:42:48;;;;;;;19.83;12.10;;;3.70;99.90;;;;;;5082060;28;20251;-62
2020/12/16 00:45:16;;;;;;;29.65;12.95;;;3.70;99.90;;;;;;5082091;28;20232;-62
2020/12/16 00:47:43;;;;;;;19.58;10.52;;;3.70;99.90;;;;;;5081552;28;20466;-62
2020/12/16 00:50:10;;;;;;;20.38;12.45;;;3.70;99.90;;;;;;5083640;28;20213;-61
2020/12/16 00:52:52;;;;;;;24.90;12.13;;;3.70;99.90;;;;;;5083141;28;20247;-63
2020/12/16 00:55:19;;;;;;;27.73;14.35;;;3.70;99.90;;;;;;5082901;28;20230;-63
2020/12/16 00:57:46;;;;;;;24.23;11.77;;;3.70;99.90;;;;;;5082987;28;20301;-61
2020/12/16 01:00:14;;;;;;;30.30;12.70;;;3.70;99.90;;;;;;5082818;28;20504;-62
2020/12/16 01:02:44;;;;;;;22.67;11.90;;;3.80;99.90;;;;;;5084396;28;20205;-63
2020/12/16 01:05:13;;;;;;;19.15;9.55;;;3.80;99.90;;;;;;5081540;28;20234;-63
2020/12/16 01:07:40;;;;;;;21.77;12.25;;;3.80;99.90;;;;;;5085931;28;20241;-62
2020/12/16 01:10:08;;;;;;;23.23;12.85;;;3.70;99.90;;;;;;5084562;28;20216;-62
2020/12/16 01:12:40;;;;;;;25.20;12.57;;;3.70;99.90;;;;;;5079147;28;20207;-61
2020/12/16 01:15:12;;;;;;;25.48;14.43;;;3.70;99.90;;;;;;5079663;28;21257;-62
2020/12/16 01:17:42;;;;;;;25.00;13.98;;;3.70;99.90;;;;;;5082314;28;20208;-62
2020/12/16 01:20:09;;;;;;;23.73;11.75;;;3.80;99.90;;;;;;5082126;28;20242;-62
2020/12/16 01:22:41;;;;;;;22.33;12.85;;;3.70;99.90;;;;;;5083765;28;20202;-62
2020/12/16 01:25:08;;;;;;;20.83;12.45;;;3.70;99.90;;;;;;5080352;28;20206;-62
2020/12/16 01:27:35;;;;;;;24.70;12.13;;;3.70;99.90;;;;;;5079585;28;20206;-62
2020/12/16 01:30:07;;;;;;;19.25;10.57;;;3.70;99.90;;;;;;5081494;28;20224;-62
2020/12/16 01:32:36;;;;;;;22.08;12.40;;;3.80;99.90;;;;;;5083401;28;20265;-63
2020/12/16 01:35:10;;;;;;;24.17;11.95;;;3.80;99.90;;;;;;5077147;28;20255;-62
2020/12/16 01:37:37;;;;;;;26.33;12.65;;;3.90;99.90;;;;;;5081963;28;20319;-62
2020/12/16 01:40:08;;;;;;;22.38;13.07;;;3.90;99.90;;;;;;5082842;28;20210;-62
2020/12/16 01:42:37;;;;;;;23.67;11.98;;;4.00;99.90;;;;;;5078522;28;20444;-62
2020/12/16 01:45:09;;;;;;;25.45;11.95;;;3.90;99.90;;;;;;5082799;28;20212;-62
2020/12/16 01:47:36;;;;;;;23.05;12.35;;;3.80;99.90;;;;;;5083794;28;20229;-62
2020/12/16 01:50:05;;;;;;;22.75;12.25;;;3.80;99.90;;;;;;5081600;28;20202;-61
2020/12/16 01:52:32;;;;;;;23.75;11.90;;;3.90;99.90;;;;;;5082875;28;20501;-62
2020/12/16 01:55:00;;;;;;;19.83;12.70;;;3.90;99.90;;;;;;5082346;28;20234;-61
2020/12/16 01:57:29;;;;;;;26.35;11.93;;;3.90;99.90;;;;;;5077870;28;20651;-61
2020/12/16 01:59:59;;;;;;;22.55;12.50;;;4.00;99.90;;;;;;5081339;28;20403;-61
2020/12/16 02:02:29;;;;;;;20.10;12.77;;;3.90;99.90;;;;;;5080868;28;20206;-61
2020/12/16 02:04:58;;;;;;;20.20;13.68;;;3.90;99.90;;;;;;5082662;28;20874;-61
2020/12/16 02:07:27;;;;;;;21.85;11.27;;;4.00;99.90;;;;;;5080913;28;20209;-63
2020/12/16 02:09:53;;;;;;;23.48;13.38;;;4.00;99.90;;;;;;5077445;28;20214;-62
2020/12/16 02:12:27;;;;;;;22.23;11.73;;;4.00;99.90;;;;;;5082310;28;20212;-62
2020/12/16 02:14:54;;;;;;;19.25;12.75;;;4.00;99.90;;;;;;5080535;28;20244;-62
2020/12/16 02:17:21;;;;;;;32.22;17.92;;;4.00;99.90;;;;;;5082752;28;20204;-63
2020/12/16 02:19:58;;;;;;;32.88;15.02;;;4.20;99.90;;;;;;5079537;28;20253;-63
2020/12/16 02:22:26;;;;;;;20.45;12.63;;;4.20;99.90;;;;;;5080498;28;20209;-63
2020/12/16 02:25:07;;;;;;;22.90;14.60;;;4.30;99.90;;;;;;5083685;28;20411;-62
2020/12/16 02:27:35;;;;;;;23.63;12.63;;;4.30;99.90;;;;;;5082878;28;20206;-62
2020/12/16 02:30:04;;;;;;;24.83;13.45;;;4.30;99.90;;;;;;5078652;28;20217;-61
2020/12/16 02:32:33;;;;;;;16.90;11.05;;;4.20;99.90;;;;;;5078516;28;20520;-62
2020/12/16 02:35:00;;;;;;;23.05;11.88;;;4.20;99.90;;;;;;5079328;28;20233;-62
2020/12/16 02:37:27;;;;;;;23.67;12.52;;;4.20;99.90;;;;;;5080103;28;20563;-63
2020/12/16 02:39:53;;;;;;;30.55;12.93;;;4.10;99.90;;;;;;5083097;28;20217;-61
2020/12/16 02:42:25;;;;;;;21.45;11.93;;;4.20;99.90;;;;;;5083007;28;20202;-62
2020/12/16 02:44:52;;;;;;;22.17;11.40;;;4.20;99.90;;;;;;5078889;28;20209;-62
2020/12/16 02:47:19;;;;;;;21.35;10.88;;;4.20;99.90;;;;;;5078243;28;20468;-61
2020/12/16 02:49:46;;;;;;;24.58;12.77;;;4.20;99.90;;;;;;5079244;28;20229;-61
2020/12/16 02:52:13;;;;;;;21.63;12.77;;;4.20;99.90;;;;;;5080585;28;20212;-63
2020/12/16 02:54:40;;;;;;;19.02;11.48;;;4.20;99.90;;;;;;5084271;28;20228;-62
2020/12/16 02:57:07;;;;;;;26.23;12.40;;;4.10;99.90;;;;;;5077803;28;20431;-61
2020/12/16 02:59:34;;;;;;;19.98;10.07;;;4.30;99.90;;;;;;5083372;28;20213;-61
2020/12/16 03:02:03;;;;;;;21.33;12.68;;;4.10;99.90;;;;;;5079846;28;20221;-63
2020/12/16 03:04:30;;;;;;;18.45;9.20;;;4.10;99.90;;;;;;5079775;28;20236;-62
2020/12/16 03:06:57;;;;;;;21.55;11.75;;;4.00;99.90;;;;;;5082966;28;20564;-62
2020/12/16 03:09:26;;;;;;;20.88;12.52;;;4.20;99.90;;;;;;5082007;28;20205;-62
2020/12/16 03:11:55;;;;;;;23.35;13.60;;;4.20;99.90;;;;;;5079480;28;20225;-62
2020/12/16 03:14:23;;;;;;;21.70;11.13;;;4.30;99.90;;;;;;5078945;28;20227;-62
2020/12/16 03:16:53;;;;;;;17.30;12.68;;;4.20;99.90;;;;;;5079187;28;20216;-61
2020/12/16 03:19:20;;;;;;;18.73;11.98;;;4.20;99.90;;;;;;5082132;28;21376;-63
2020/12/16 03:21:47;;;;;;;18.52;11.13;;;4.30;99.90;;;;;;5079295;28;20210;-61
2020/12/16 03:24:20;;;;;;;22.35;12.85;;;4.30;99.90;;;;;;5082739;28;20218;-62
2020/12/16 03:26:47;;;;;;;17.05;10.98;;;4.20;99.90;;;;;;5078504;28;20209;-60
2020/12/16 03:29:14;;;;;;;19.85;10.80;;;4.20;99.90;;;;;;5080916;28;20205;-63
2020/12/16 03:31:40;;;;;;;21.02;11.95;;;4.30;99.90;;;;;;5079355;28;20214;-61
2020/12/16 03:34:07;;;;;;;17.55;12.23;;;4.10;99.90;;;;;;5084134;28;20358;-62
2020/12/16 03:36:35;;;;;;;24.17;11.98;;;4.40;99.90;;;;;;5078783;28;20296;-61
2020/12/16 03:39:03;;;;;;;23.65;10.85;;;4.40;99.90;;;;;;5081326;28;20213;-61
2020/12/16 03:41:29;;;;;;;21.17;12.15;;;4.40;99.90;;;;;;5079226;28;20202;-62
2020/12/16 03:43:57;;;;;;;29.27;14.32;;;4.50;99.90;;;;;;5078006;28;20597;-61
2020/12/16 03:46:23;;;;;;;21.35;12.25;;;4.50;99.90;;;;;;5077950;28;20517;-62
2020/12/16 03:48:50;;;;;;;25.98;15.02;;;4.50;99.90;;;;;;5083927;28;20392;-62
2020/12/16 03:51:16;;;;;;;22.60;12.68;;;4.40;99.90;;;;;;5078555;28;20202;-62
2020/12/16 03:53:43;;;;;;;29.13;14.35;;;4.40;99.90;;;;;;5078518;28;20220;-61
2020/12/16 03:56:12;;;;;;;27.77;13.00;;;4.50;99.90;;;;;;5080980;28;20561;-61
2020/12/16 03:58:43;;;;;;;25.77;13.85;;;4.40;99.90;;;;;;5095682;28;20388;-62
2020/12/16 04:01:11;;;;;;;26.20;13.07;;;4.50;99.90;;;;;;5079525;28;20392;-61
2020/12/16 04:03:38;;;;;;;26.50;13.75;;;4.50;99.90;;;;;;5081958;28;20535;-61
2020/12/16 04:06:12;;;;;;;26.38;14.02;;;4.50;99.90;;;;;;5077512;28;20213;-62
2020/12/16 04:08:42;;;;;;;25.85;14.50;;;4.60;99.90;;;;;;5079145;28;20204;-61
2020/12/16 04:11:15;;;;;;;20.00;11.80;;;4.50;99.90;;;;;;5078057;28;20527;-62
2020/12/16 04:13:41;;;;;;;28.25;12.18;;;4.60;99.90;;;;;;5079305;28;20206;-61
2020/12/16 04:16:12;;;;;;;18.85;11.65;;;4.70;99.90;;;;;;5079127;28;20249;-61
2020/12/16 04:18:39;;;;;;;17.55;10.77;;;4.80;99.90;;;;;;5078169;28;20211;-61
2020/12/16 04:21:09;;;;;;;19.15;9.98;;;4.70;99.90;;;;;;5077181;28;21379;-62
2020/12/16 04:23:37;;;;;;;12.75;7.93;;;4.70;99.90;;;;;;5080142;28;20274;-62
2020/12/16 04:26:04;;;;;;;13.90;8.90;;;4.70;99.90;;;;;;5080250;28;20225;-63
2020/12/16 04:28:33;;;;;;;15.70;8.15;;;4.60;99.90;;;;;;5083992;28;20391;-62
2020/12/16 04:31:01;;;;;;;20.10;9.00;;;4.70;99.90;;;;;;5077198;28;20453;-61
2020/12/16 04:33:28;;;;;;;11.48;7.68;;;4.70;99.90;;;;;;5074934;28;20491;-61
2020/12/16 04:35:54;;;;;;;14.00;7.50;;;4.80;99.90;;;;;;5078400;28;20251;-62
2020/12/16 04:38:21;;;;;;;20.08;8.40;;;4.80;99.90;;;;;;5084085;28;20203;-61
2020/12/16 04:40:48;;;;;;;17.77;7.25;;;4.80;99.90;;;;;;5077696;28;20214;-61
2020/12/16 04:43:20;;;;;;;13.48;9.00;;;4.80;99.90;;;;;;5081296;28;20209;-62
2020/12/16 04:45:49;;;;;;;18.02;11.65;;;4.80;99.90;;;;;;5080948;28;20378;-61
2020/12/16 04:48:16;;;;;;;19.88;9.98;;;4.80;99.90;;;;;;5078918;28;20231;-61
2020/12/16 04:50:44;;;;;;;26.65;9.05;;;4.90;99.90;;;;;;5080381;28;20209;-61
2020/12/16 04:53:13;;;;;;;20.83;10.65;;;4.80;99.90;;;;;;5086243;28;20203;-66
2020/12/16 04:55:41;;;;;;;26.42;13.23;;;4.90;99.90;;;;;;5079989;28;20233;-61
2020/12/16 04:58:09;;;;;;;22.65;13.32;;;4.80;99.90;;;;;;5086235;28;20206;-62
2020/12/16 05:00:37;;;;;;;30.58;14.00;;;4.90;99.90;;;;;;5078496;28;20241;-61
2020/12/16 05:03:06;;;;;;;27.35;12.48;;;5.00;99.90;;;;;;5083877;28;20218;-61
2020/12/16 05:05:33;;;;;;;21.13;11.77;;;4.90;99.90;;;;;;5082321;28;20202;-60
2020/12/16 05:08:16;;;;;;;23.10;12.15;;;4.90;99.90;;;;;;5082799;28;20210;-61
2020/12/16 05:10:45;;;;;;;28.52;13.35;;;4.90;99.90;;;;;;5082954;28;20207;-61
2020/12/16 05:13:14;;;;;;;20.90;11.07;;;4.90;99.90;;;;;;5081514;28;20235;-61
2020/12/16 05:15:42;;;;;;;16.02;9.27;;;5.10;99.90;;;;;;5080447;28;20714;-60
2020/12/16 05:18:21;;;;;;;19.88;11.00;;;5.00;99.90;;;;;;5083826;28;20543;-60
2020/12/16 05:20:50;;;;;;;15.75;8.95;;;4.90;99.90;;;;;;5079629;28;20242;-61
2020/12/16 05:23:18;;;;;;;20.17;10.65;;;5.00;99.90;;;;;;5084312;28;20206;-62
2020/12/16 05:26:06;;;;;;;20.15;10.85;;;5.00;99.90;;;;;;5080312;28;20488;-61
2020/12/16 05:28:37;;;;;;;15.35;9.05;;;4.90;99.90;;;;;;5084719;28;20534;-61
2020/12/16 05:31:06;;;;;;;24.48;11.93;;;4.90;99.90;;;;;;5081537;28;20215;-61
2020/12/16 05:33:45;;;;;;;20.25;10.98;;;4.90;99.90;;;;;;5083025;28;20237;-62
2020/12/16 05:36:11;;;;;;;22.02;11.32;;;4.90;99.90;;;;;;5082841;28;20237;-62
2020/12/16 05:38:54;;;;;;;18.92;11.20;;;5.00;99.90;;;;;;5081787;28;20214;-60
2020/12/16 05:41:39;;;;;;;20.73;12.77;;;5.10;99.90;;;;;;5081464;28;20274;-62
2020/12/16 05:44:18;;;;;;;21.90;11.80;;;5.10;99.90;;;;;;5082799;28;20215;-61
2020/12/16 05:46:50;;;;;;;21.83;12.02;;;5.10;99.90;;;;;;5083188;28;20235;-60
2020/12/16 05:49:30;;;;;;;22.88;12.07;;;5.10;99.90;;;;;;5082738;28;20427;-61
2020/12/16 05:52:04;;;;;;;16.55;9.77;;;5.00;99.90;;;;;;5080193;28;20508;-62
2020/12/16 05:54:32;;;;;;;13.40;9.85;;;5.10;99.90;;;;;;5081874;28;20529;-60
2020/12/16 05:57:12;;;;;;;18.27;8.73;;;5.00;99.90;;;;;;5080323;28;20258;-60
2020/12/16 05:59:39;;;;;;;23.95;9.73;;;5.10;99.90;;;;;;5081420;28;20217;-61
2020/12/16 06:02:07;;;;;;;19.30;11.07;;;5.10;99.90;;;;;;5080322;28;20233;-61
2020/12/16 06:04:37;;;;;;;17.42;9.38;;;5.10;99.90;;;;;;5083995;28;20226;-62
2020/12/16 06:07:04;;;;;;;21.35;9.93;;;5.10;99.90;;;;;;5085812;28;20210;-61
2020/12/16 06:09:32;;;;;;;22.08;10.88;;;5.10;99.90;;;;;;5094768;28;20261;-62
2020/12/16 06:12:09;;;;;;;22.63;11.32;;;5.00;99.90;;;;;;5092467;28;20519;-62
2020/12/16 06:14:39;;;;;;;19.13;13.23;;;5.00;99.90;;;;;;5095005;28;20538;-62
2020/12/16 06:17:12;;;;;;;17.38;10.93;;;5.00;99.90;;;;;;5098568;28;20213;-61
2020/12/16 06:19:43;;;;;;;19.10;9.27;;;4.90;99.90;;;;;;5093275;28;20567;-62
2020/12/16 06:22:10;;;;;;;20.90;11.07;;;4.90;99.90;;;;;;5089153;28;20205;-62
2020/12/16 06:24:42;;;;;;;17.33;9.35;;;5.00;99.90;;;;;;5096893;28;20212;-62
2020/12/16 06:27:11;;;;;;;17.42;9.93;;;5.00;99.90;;;;;;5094071;28;20546;-62
2020/12/16 06:29:48;;;;;;;19.02;10.43;;;4.90;99.90;;;;;;5094437;28;20206;-62
2020/12/16 06:32:30;;;;;;;20.85;11.15;;;4.90;99.90;;;;;;5092088;28;20552;-61
2020/12/16 06:34:59;;;;;;;22.77;10.60;;;5.00;99.90;;;;;;5090152;28;20206;-62
2020/12/16 06:37:26;;;;;;;16.52;10.80;;;4.90;99.90;;;;;;5095361;28;20211;-62
2020/12/16 06:39:52;;;;;;;25.25;11.43;;;5.00;99.90;;;;;;5093649;28;20202;-61
2020/12/16 06:42:32;;;;;;;18.75;11.68;;;5.00;99.90;;;;;;5094019;28;20206;-61
2020/12/16 06:45:31;;;;;;;24.95;11.75;;;5.10;99.90;;;;;;5090383;28;20198;-62
2020/12/16 06:48:18;;;;;;;20.02;10.23;;;5.10;99.90;;;;;;5096811;28;20446;-63
2020/12/16 06:50:44;;;;;;;24.50;10.98;;;5.00;99.90;;;;;;5088368;28;20545;-62
2020/12/16 06:53:23;;;;;;;19.23;9.77;;;5.00;99.90;;;;;;5092414;28;20195;-62
2020/12/16 06:56:05;;;;;;;15.68;9.75;;;5.10;99.90;;;;;;5087502;28;20232;-62
2020/12/16 06:58:36;;;;;;;18.20;8.60;;;5.10;99.90;;;;;;5046956;28;20237;-62
2020/12/16 07:01:31;;;;;;;16.65;9.23;;;5.20;99.90;;;;;;5090909;28;20213;-62
2020/12/16 07:03:58;;;;;;;17.38;11.48;;;5.10;99.90;;;;;;5091477;28;20217;-61
2020/12/16 07:06:27;;;;;;;19.42;9.18;;;5.20;99.90;;;;;;5088884;28;20215;-63
2020/12/16 07:09:12;;;;;;;16.10;10.25;;;5.20;99.90;;;;;;5090820;28;20205;-63
2020/12/16 07:11:40;;;;;;;20.48;11.68;;;5.20;99.90;;;;;;5089333;28;20206;-63
2020/12/16 07:14:12;;;;;;;16.63;10.32;;;5.20;99.90;;;;;;5080532;28;20221;-61
2020/12/16 07:16:39;;;;;;;20.80;11.30;;;5.10;99.90;;;;;;5093070;28;20232;-62
2020/12/16 07:19:05;;;;;;;17.77;10.68;;;5.20;99.90;;;;;;5084581;28;20542;-62
2020/12/16 07:21:33;;;;;;;15.60;10.32;;;5.10;99.90;;;;;;5094872;28;20266;-61
2020/12/16 07:24:10;;;;;;;18.27;10.13;;;5.20;99.90;;;;;;5080122;28;20273;-61
2020/12/16 07:26:55;;;;;;;21.80;9.43;;;5.20;99.90;;;;;;5090886;28;20206;-62
2020/12/16 07:29:23;;;;;;;13.00;8.85;;;5.20;99.90;;;;;;5097113;28;20201;-63
2020/12/16 07:32:09;;;;;;;13.63;8.80;;;5.20;99.90;;;;;;5077905;28;20447;-62
2020/12/16 07:34:41;;;;;;;10.65;6.30;;;5.30;99.90;;;;;;5085517;28;20202;-62
2020/12/16 07:37:09;;;;;;;23.60;9.48;;;5.30;99.90;;;;;;5097099;28;20332;-62
2020/12/16 07:39:45;;;;;;;20.15;9.30;;;5.40;99.90;;;;;;5097319;28;20205;-61
2020/12/16 07:42:19;;;;;;;14.35;8.35;;;5.40;99.90;;;;;;5091596;28;20233;-62
2020/12/16 07:44:45;;;;;;;18.35;8.23;;;5.50;99.90;;;;;;5070137;28;20514;-62
2020/12/16 07:47:14;;;;;;;15.68;10.13;;;5.40;99.90;;;;;;5090718;28;20214;-62
2020/12/16 07:49:40;;;;;;;14.48;6.95;;;5.40;99.90;;;;;;5083033;28;20202;-63
2020/12/16 07:52:07;;;;;;;11.40;7.60;;;5.40;99.90;;;;;;5088167;28;20466;-62
2020/12/16 07:54:33;;;;;;;24.35;10.07;;;5.40;99.90;;;;;;5088840;28;20262;-62
2020/12/16 07:57:01;;;;;;;15.13;7.75;;;5.50;99.90;;;;;;5089653;28;20293;-62
2020/12/16 07:59:34;;;;;;;15.38;9.60;;;5.50;99.90;;;;;;5089945;28;20202;-62
2020/12/16 08:02:12;;;;;;;18.00;8.75;;;5.60;99.90;;;;;;5084479;28;20393;-61
2020/12/16 08:04:42;;;;;;;16.95;8.05;;;5.60;99.90;;;;;;5085383;28;20214;-62
2020/12/16 08:07:14;;;;;;;14.07;8.27;;;5.60;99.90;;;;;;5081397;28;20203;-62
2020/12/16 08:09:52;;;;;;;16.60;9.32;;;5.60;99.90;;;;;;5087890;28;20202;-63
2020/12/16 08:12:24;;;;;;;18.25;7.90;;;5.70;99.90;;;;;;5089628;28;20222;-62
2020/12/16 08:15:17;;;;;;;17.02;9.52;;;5.60;99.90;;;;;;5084470;28;20226;-63
2020/12/16 08:17:51;;;;;;;11.82;6.80;;;5.70;99.90;;;;;;5081376;28;20207;-62
2020/12/16 08:20:21;;;;;;;18.52;9.00;;;5.70;99.90;;;;;;5089475;28;20314;-63
2020/12/16 08:23:00;;;;;;;18.50;10.50;;;5.70;99.90;;;;;;5089339;28;20202;-62
2020/12/16 08:25:28;;;;;;;12.02;8.38;;;5.70;99.90;;;;;;5095729;28;20504;-61
2020/12/16 08:27:56;;;;;;;22.73;10.85;;;5.70;99.90;;;;;;5081091;28;20214;-63
2020/12/16 08:30:31;;;;;;;18.95;8.93;;;5.80;99.90;;;;;;5095702;28;20329;-62
2020/12/16 08:33:09;;;;;;;17.10;9.55;;;5.80;99.90;;;;;;5092067;28;20272;-62
2020/12/16 08:35:41;;;;;;;23.33;10.77;;;5.80;99.90;;;;;;5081838;28;20230;-62
2020/12/16 08:38:11;;;;;;;14.77;8.95;;;5.80;99.90;;;;;;5080044;28;20236;-62
2020/12/16 08:40:46;;;;;;;19.70;10.32;;;5.80;99.90;;;;;;5094022;28;20248;-63
2020/12/16 08:43:29;;;;;;;13.80;7.22;;;5.90;99.90;;;;;;5088402;28;20409;-61
2020/12/16 08:46:17;;;;;;;14.18;8.00;;;5.90;99.90;;;;;;5099519;28;20229;-63
2020/12/16 08:49:05;;;;;;;11.07;7.10;;;5.90;99.90;;;;;;5096173;28;20233;-62
2020/12/16 08:51:44;;;;;;;12.48;8.15;;;6.00;99.90;;;;;;5093164;28;20194;-62
2020/12/16 08:54:16;;;;;;;23.08;8.93;;;6.00;99.90;;;;;;5095954;28;20265;-62
2020/12/16 08:56:52;;;;;;;16.70;8.75;;;6.10;99.90;;;;;;5090240;28;20397;-63
2020/12/16 08:59:22;;;;;;;14.15;7.15;;;6.10;99.90;;;;;;5089307;28;20207;-64
2020/12/16 09:02:09;;;;;;;16.48;7.95;;;6.00;99.90;;;;;;5081791;28;20270;-62
2020/12/16 09:04:39;;;;;;;13.27;7.25;;;6.10;99.90;;;;;;5086105;28;20444;-63
2020/12/16 09:07:14;;;;;;;17.55;9.05;;;6.10;99.90;;;;;;5088235;28;20209;-63
2020/12/16 09:09:58;;;;;;;19.23;8.60;;;6.10;99.90;;;;;;5083887;28;20197;-63
2020/12/16 09:12:26;;;;;;;11.77;7.47;;;6.20;99.90;;;;;;5088442;28;20190;-63
2020/12/16 09:14:58;;;;;;;15.30;9.52;;;6.10;99.90;;;;;;5093914;28;20216;-62
2020/12/16 09:17:29;;;;;;;16.67;9.45;;;6.20;99.90;;;;;;5099192;28;20206;-62
2020/12/16 09:20:17;;;;;;;10.02;7.35;;;6.30;99.90;;;;;;5090158;28;20578;-63
2020/12/16 09:22:45;;;;;;;17.58;10.30;;;6.40;99.90;;;;;;5095377;28;20281;-63
2020/12/16 09:25:16;;;;;;;15.40;8.68;;;6.40;99.90;;;;;;5095813;28;20232;-62
2020/12/16 09:27:56;;;;;;;15.98;8.43;;;6.70;99.90;;;;;;5092886;28;20238;-63
2020/12/16 09:30:34;;;;;;;15.43;8.68;;;6.80;99.90;;;;;;5098860;28;20208;-62
2020/12/16 09:33:12;;;;;;;15.70;8.55;;;6.90;99.90;;;;;;5099872;28;20536;-61
2020/12/16 09:35:40;;;;;;;12.00;7.63;;;6.90;99.90;;;;;;5088210;28;20296;-63
2020/12/16 09:38:17;;;;;;;28.63;10.18;;;7.00;99.90;;;;;;5093399;28;20215;-62
2020/12/16 09:40:45;;;;;;;14.77;9.10;;;6.90;99.90;;;;;;5097669;28;20269;-62
2020/12/16 09:43:12;;;;;;;18.92;7.82;;;6.80;99.90;;;;;;5087980;28;20211;-63
2020/12/16 09:45:39;;;;;;;14.45;8.70;;;6.80;99.90;;;;;;5092095;28;20379;-61
2020/12/16 09:48:07;;;;;;;14.00;8.75;;;6.90;99.90;;;;;;5078786;28;20218;-63
2020/12/16 09:50:38;;;;;;;15.90;8.82;;;6.90;99.90;;;;;;5077355;28;20414;-62
2020/12/16 09:53:06;;;;;;;17.52;9.35;;;6.90;99.90;;;;;;5086702;28;20206;-62
2020/12/16 09:55:39;;;;;;;18.90;8.75;;;6.90;99.90;;;;;;5097720;28;20290;-62
2020/12/16 09:58:13;;;;;;;11.93;7.93;;;6.90;99.90;;;;;;5098294;28;20206;-63
2020/12/16 10:00:44;;;;;;;13.70;9.15;;;7.00;99.90;;;;;;5094843;28;20198;-62
2020/12/16 10:03:13;;;;;;;20.55;10.38;;;7.00;99.90;;;;;;5090594;28;20203;-63
2020/12/16 10:05:41;;;;;;;13.50;8.75;;;7.00;99.90;;;;;;5098373;28;20206;-65
2020/12/16 10:08:19;;;;;;;27.42;12.77;;;7.00;99.90;;;;;;5086470;28;20409;-62
2020/12/16 10:10:51;;;;;;;17.30;10.73;;;7.00;99.90;;;;;;5079882;28;20224;-63
2020/12/16 10:13:22;;;;;;;12.35;9.40;;;7.00;99.90;;;;;;5098148;28;20266;-62
2020/12/16 10:15:49;;;;;;;16.08;9.25;;;6.90;99.90;;;;;;5092517;28;20237;-65
2020/12/16 10:18:17;;;;;;;19.20;11.63;;;6.90;99.90;;;;;;5088610;28;20282;-62
2020/12/16 10:20:47;;;;;;;16.42;11.50;;;6.90;99.90;;;;;;5091668;28;20278;-62
2020/12/16 10:23:22;;;;;;;24.95;11.30;;;6.90;99.90;;;;;;5095965;28;20524;-63
2020/12/16 10:25:50;;;;;;;17.65;11.80;;;7.00;99.90;;;;;;5094017;28;20211;-63
2020/12/16 10:28:30;;;;;;;21.02;10.02;;;7.00;99.90;;;;;;5096196;28;20202;-62
2020/12/16 10:30:57;;;;;;;16.42;11.30;;;7.00;99.90;;;;;;5084750;28;20959;-61
2020/12/16 10:33:23;;;;;;;22.25;12.40;;;7.00;99.90;;;;;;5098605;28;20284;-62
2020/12/16 10:35:50;;;;;;;15.68;9.75;;;7.00;99.90;;;;;;5083442;28;20237;-62
2020/12/16 10:38:17;;;;;;;25.83;10.48;;;7.00;99.90;;;;;;5098943;28;20202;-62
2020/12/16 10:40:43;;;;;;;19.67;10.90;;;7.00;99.90;;;;;;5096746;28;20207;-62
2020/12/16 10:43:10;;;;;;;21.55;11.48;;;7.00;99.90;;;;;;5096567;28;20255;-62
2020/12/16 10:45:37;;;;;;;19.73;12.38;;;7.10;99.90;;;;;;5096878;28;20215;-61
2020/12/16 10:48:05;;;;;;;18.90;11.90;;;7.10;99.90;;;;;;5094568;28;20426;-62
2020/12/16 10:50:32;;;;;;;20.67;11.00;;;7.10;99.90;;;;;;5082786;28;20245;-63
2020/12/16 10:53:00;;;;;;;19.63;11.32;;;6.90;99.90;;;;;;5086188;28;20207;-62
2020/12/16 10:55:27;;;;;;;20.33;13.23;;;6.90;99.90;;;;;;5098371;28;20229;-62
2020/12/16 10:57:54;;;;;;;22.35;12.55;;;7.10;99.90;;;;;;5078370;28;20466;-62
2020/12/16 11:00:20;;;;;;;21.67;10.65;;;7.10;99.90;;;;;;5090340;28;20509;-61
2020/12/16 11:02:50;;;;;;;24.83;11.60;;;6.90;99.90;;;;;;5097781;28;20248;-63
2020/12/16 11:05:17;;;;;;;20.83;11.57;;;6.90;99.90;;;;;;5097799;28;20365;-62
2020/12/16 11:07:43;;;;;;;21.15;10.80;;;6.80;99.90;;;;;;5087900;28;20198;-63
2020/12/16 11:10:10;;;;;;;13.63;9.57;;;6.90;99.90;;;;;;5092450;28;20209;-63
2020/12/16 11:12:36;;;;;;;20.25;13.05;;;7.00;99.90;;;;;;5095200;28;20213;-62
2020/12/16 11:15:03;;;;;;;27.60;12.77;;;7.10;99.90;;;;;;5097044;28;20392;-62
2020/12/16 11:17:30;;;;;;;28.20;14.23;;;7.10;99.90;;;;;;5097500;28;20241;-63
2020/12/16 11:19:57;;;;;;;20.77;11.43;;;7.10;99.90;;;;;;5088234;28;20234;-62
2020/12/16 11:22:24;;;;;;;19.60;10.60;;;7.20;99.90;;;;;;5095661;28;20206;-62
2020/12/16 11:24:51;;;;;;;24.30;10.85;;;7.10;99.90;;;;;;5093330;28;20222;-61
2020/12/16 11:27:18;;;;;;;19.73;12.05;;;7.30;99.90;;;;;;5093167;28;20210;-62
2020/12/16 11:29:49;;;;;;;21.73;10.82;;;7.30;99.90;;;;;;5090682;28;20437;-62
2020/12/16 11:32:15;;;;;;;19.70;11.60;;;7.20;99.90;;;;;;5090745;28;20424;-62
2020/12/16 11:34:42;;;;;;;20.25;12.07;;;7.30;99.90;;;;;;5087202;28;20202;-63
2020/12/16 11:37:08;;;;;;;16.83;8.75;;;7.20;99.90;;;;;;5093892;28;20219;-62
2020/12/16 11:39:35;;;;;;;19.42;10.25;;;7.30;99.90;;;;;;5096361;28;20202;-62
2020/12/16 11:42:03;;;;;;;16.98;10.38;;;7.30;99.90;;;;;;5091063;28;20213;-62
2020/12/16 11:44:30;;;;;;;19.05;9.98;;;7.30;99.90;;;;;;5089787;28;20210;-62
2020/12/16 11:46:58;;;;;;;19.42;11.45;;;7.40;99.90;;;;;;5090364;28;20261;-62
2020/12/16 11:49:26;;;;;;;17.00;11.73;;;7.40;99.90;;;;;;5088830;28;20205;-61
2020/12/16 11:51:54;;;;;;;24.25;13.02;;;7.50;99.90;;;;;;5088084;28;20222;-62
2020/12/16 11:54:21;;;;;;;20.45;10.32;;;7.50;99.90;;;;;;5095884;28;20213;-62
2020/12/16 11:56:48;;;;;;;16.10;9.57;;;7.60;99.90;;;;;;5091505;28;20226;-62
2020/12/16 11:59:25;;;;;;;16.45;9.82;;;7.50;99.90;;;;;;5097410;28;20219;-62
2020/12/16 12:01:56;;;;;;;20.27;12.82;;;7.50;99.90;;;;;;5090820;28;20660;-63
2020/12/16 12:04:24;;;;;;;22.45;12.75;;;7.40;99.90;;;;;;5085575;28;20218;-62
2020/12/16 12:06:51;;;;;;;22.05;12.75;;;7.40;99.90;;;;;;5093208;28;20207;-62
2020/12/16 12:09:23;;;;;;;29.70;12.32;;;7.50;99.90;;;;;;5087693;28;20305;-62
2020/12/16 12:11:51;;;;;;;21.15;12.30;;;7.50;99.90;;;;;;5095411;28;20206;-63
2020/12/16 12:14:19;;;;;;;22.52;11.98;;;7.50;99.90;;;;;;5099666;28;20217;-62
2020/12/16 12:16:50;;;;;;;19.38;11.57;;;7.50;99.90;;;;;;5085974;28;20543;-62
2020/12/16 12:19:16;;;;;;;19.70;11.85;;;7.40;99.90;;;;;;5088877;28;20210;-62
2020/12/16 12:21:43;;;;;;;21.30;13.70;;;7.50;99.90;;;;;;5100572;28;20204;-63
2020/12/16 12:24:10;;;;;;;23.23;13.02;;;7.40;99.90;;;;;;5098272;28;20209;-62
2020/12/16 12:26:37;;;;;;;41.03;15.82;;;7.40;99.90;;;;;;5089761;28;20218;-62
2020/12/16 12:29:04;;;;;;;17.85;13.05;;;7.30;99.90;;;;;;5092567;28;20260;-63
2020/12/16 12:31:31;;;;;;;18.23;12.45;;;7.40;99.90;;;;;;5084775;28;20212;-62
2020/12/16 12:33:57;;;;;;;20.88;13.70;;;7.50;99.90;;;;;;5081477;28;20227;-63
2020/12/16 12:36:24;;;;;;;16.23;12.23;;;7.50;99.90;;;;;;5088556;28;20383;-63
2020/12/16 12:38:52;;;;;;;16.58;11.60;;;7.40;99.90;;;;;;5098269;28;20347;-62
2020/12/16 12:41:19;;;;;;;23.55;12.27;;;7.40;99.90;;;;;;5099486;28;20404;-63
2020/12/16 12:43:46;;;;;;;22.05;12.48;;;7.30;99.90;;;;;;5100223;28;20408;-62
2020/12/16 12:46:12;;;;;;;23.55;12.63;;;7.40;99.90;;;;;;5094177;28;20213;-61
2020/12/16 12:48:39;;;;;;;18.90;11.27;;;7.40;99.90;;;;;;5087854;28;20232;-63
2020/12/16 12:51:05;;;;;;;25.13;13.57;;;7.30;99.90;;;;;;5086441;28;20206;-62
2020/12/16 12:53:54;;;;;;;21.30;12.50;;;7.40;99.90;;;;;;5084248;28;20453;-61
2020/12/16 12:56:21;;;;;;;22.52;12.27;;;7.20;99.90;;;;;;5093604;28;20604;-62